Time;durP1;ratioP1;P1;durP2;ratioP2;P2;SDS_P1;SDS_P2;PMS_P1;PMS_P2;Temp;Humidity;BMP_temperature;BMP_pressure;BME280_temperature;BME280_humidity;BME280_pressure;Samples;Min_cycle;Max_cycle;Signal;HPM_P1;HPM_P2
2021/11/24 00:01:18;;;;;;;36.73;17.40;;;;;;;4.98;100.00;101932.88;7404682;19;20490;-52
2021/11/24 00:03:48;;;;;;;33.17;15.00;;;;;;;4.96;100.00;101929.31;7399290;19;20419;-52
2021/11/24 00:06:20;;;;;;;34.77;16.80;;;;;;;4.97;100.00;101930.22;7401752;19;20432;-47
2021/11/24 00:08:50;;;;;;;34.53;15.37;;;;;;;4.95;100.00;101932.66;7399363;19;20490;-47
2021/11/24 00:11:19;;;;;;;31.10;15.27;;;;;;;5.02;100.00;101935.72;7401699;19;20415;-44
2021/11/24 00:13:49;;;;;;;39.13;17.50;;;;;;;5.02;100.00;101930.59;7399418;19;20487;-46
2021/11/24 00:16:18;;;;;;;35.63;16.17;;;;;;;4.98;100.00;101939.69;7402166;19;20745;-47
2021/11/24 00:18:48;;;;;;;33.60;16.00;;;;;;;4.93;100.00;101934.16;7400023;19;20662;-49
2021/11/24 00:21:18;;;;;;;41.10;18.07;;;;;;;5.03;100.00;101934.94;7404342;19;20455;-47
2021/11/24 00:23:51;;;;;;;39.80;18.17;;;;;;;4.99;100.00;101929.56;7398913;19;20760;-46
2021/11/24 00:26:20;;;;;;;32.07;15.77;;;;;;;5.09;100.00;101930.34;7402336;19;20423;-46
2021/11/24 00:28:50;;;;;;;33.63;16.73;;;;;;;5.03;100.00;101924.69;7400228;19;20411;-45
2021/11/24 00:31:19;;;;;;;37.03;15.97;;;;;;;5.03;100.00;101924.69;7402304;19;20407;-46
2021/11/24 00:33:49;;;;;;;32.37;16.93;;;;;;;5.02;100.00;101917.81;7399977;19;20403;-45
2021/11/24 00:36:18;;;;;;;34.70;16.13;;;;;;;5.07;100.00;101927.63;7406347;19;20876;-48
2021/11/24 00:38:51;;;;;;;29.00;15.83;;;;;;;5.06;100.00;101914.72;7399069;19;20424;-48
2021/11/24 00:41:20;;;;;;;40.33;17.60;;;;;;;5.02;100.00;101912.69;7403356;19;20451;-48
2021/11/24 00:43:50;;;;;;;33.23;16.83;;;;;;;5.05;100.00;101908.72;7397098;19;20415;-45
2021/11/24 00:46:19;;;;;;;30.87;16.27;;;;;;;5.02;100.00;101907.56;7401908;19;20423;-45
2021/11/24 00:48:49;;;;;;;38.20;16.03;;;;;;;4.95;100.00;101901.94;7399408;19;20419;-48
2021/11/24 00:51:18;;;;;;;27.50;13.83;;;;;;;4.93;100.00;101898.34;7401882;19;20383;-46
2021/11/24 00:53:50;;;;;;;34.23;16.80;;;;;;;5.01;100.00;101896.44;7400102;19;20474;-47
2021/11/24 00:56:20;;;;;;;31.50;15.67;;;;;;;4.97;100.00;101900.41;7401827;19;20433;-48
2021/11/24 00:58:50;;;;;;;35.40;16.70;;;;;;;5.00;100.00;101900.66;7398907;19;20429;-46
2021/11/24 01:01:19;;;;;;;30.93;16.27;;;;;;;5.00;100.00;101893.00;7402612;19;20403;-44
2021/11/24 01:03:49;;;;;;;31.57;15.50;;;;;;;4.89;100.00;101893.75;7399119;19;20412;-52
2021/11/24 01:06:19;;;;;;;26.10;14.73;;;;;;;4.88;100.00;101889.44;7401462;19;20430;-50
2021/11/24 01:08:51;;;;;;;37.80;15.03;;;;;;;4.98;100.00;101880.84;7399005;19;20697;-47
2021/11/24 01:11:21;;;;;;;31.53;16.60;;;;;;;4.92;100.00;101880.34;7401841;19;20908;-48
2021/11/24 01:13:51;;;;;;;31.67;14.73;;;;;;;4.89;100.00;101878.41;7401000;19;20487;-49
2021/11/24 01:16:22;;;;;;;29.70;15.30;;;;;;;4.87;100.00;101877.38;7401138;19;20478;-48
2021/11/24 01:18:52;;;;;;;28.27;14.30;;;;;;;4.85;100.00;101874.72;7398756;19;20420;-46
2021/11/24 01:21:21;;;;;;;25.80;14.80;;;;;;;4.86;100.00;101875.59;7402532;19;20462;-47
2021/11/24 01:23:54;;;;;;;36.67;16.50;;;;;;;4.87;100.00;101872.25;7398970;19;20423;-47
2021/11/24 01:26:23;;;;;;;29.87;15.57;;;;;;;4.81;100.00;101872.66;7401017;19;20738;-48
2021/11/24 01:28:53;;;;;;;38.03;17.93;;;;;;;4.94;100.00;101872.03;7398636;19;20415;-47
2021/11/24 01:31:22;;;;;;;30.70;16.70;;;;;;;5.02;100.00;101876.88;7401413;19;20398;-50
2021/11/24 01:33:53;;;;;;;31.43;17.40;;;;;;;5.06;100.00;101858.44;7399110;19;20486;-49
2021/11/24 01:36:25;;;;;;;35.10;16.90;;;;;;;5.02;100.00;101858.97;7400470;19;20431;-48
2021/11/24 01:38:58;;;;;;;33.60;18.87;;;;;;;5.07;100.00;101858.56;7398703;19;20439;-51
2021/11/24 01:41:27;;;;;;;36.03;16.87;;;;;;;5.08;100.00;101852.66;7401655;19;21010;-51
2021/11/24 01:43:56;;;;;;;36.10;19.30;;;;;;;5.10;100.00;101852.81;7398279;19;20420;-53
2021/11/24 01:46:27;;;;;;;32.23;17.70;;;;;;;5.10;100.00;101860.47;7400043;19;20478;-45
2021/11/24 01:48:56;;;;;;;39.27;19.47;;;;;;;5.15;100.00;101848.97;7396324;19;20411;-45
2021/11/24 01:51:26;;;;;;;37.57;17.97;;;;;;;5.12;100.00;101856.38;7398811;19;20625;-46
2021/11/24 01:53:58;;;;;;;34.50;19.20;;;;;;;5.14;100.00;101858.28;7399025;19;20454;-49
2021/11/24 01:56:28;;;;;;;32.77;18.37;;;;;;;5.15;100.00;101859.19;7403329;19;20683;-48
2021/11/24 01:58:58;;;;;;;36.20;18.60;;;;;;;5.14;100.00;101858.28;7395500;19;20475;-44
2021/11/24 02:01:27;;;;;;;33.63;18.50;;;;;;;5.22;100.00;101856.38;7400847;19;20439;-49
2021/11/24 02:03:57;;;;;;;35.50;21.10;;;;;;;5.22;100.00;101856.38;7396087;19;20423;-53
2021/11/24 02:06:27;;;;;;;33.50;19.43;;;;;;;5.23;100.00;101853.03;7399359;19;20412;-47
2021/11/24 02:08:59;;;;;;;36.90;19.63;;;;;;;5.26;100.00;101837.03;7396974;19;20483;-47
2021/11/24 02:11:30;;;;;;;34.37;19.33;;;;;;;5.24;100.00;101839.47;7400418;19;20855;-47
2021/11/24 02:13:59;;;;;;;42.43;19.33;;;;;;;5.24;100.00;101831.78;7391519;19;20427;-49
2021/11/24 02:16:29;;;;;;;32.87;17.83;;;;;;;5.20;100.00;101826.31;7398676;19;20432;-47
2021/11/24 02:18:59;;;;;;;34.33;18.27;;;;;;;5.22;100.00;101827.31;7396152;19;20446;-50
2021/11/24 02:21:31;;;;;;;36.50;19.50;;;;;;;5.24;100.00;101824.09;7400725;19;20459;-47
2021/11/24 02:24:00;;;;;;;34.83;17.57;;;;;;;5.24;100.00;101828.34;7397580;19;20665;-53
2021/11/24 02:26:30;;;;;;;43.37;18.27;;;;;;;5.30;100.00;101827.94;7399196;19;20428;-49
2021/11/24 02:29:00;;;;;;;39.23;18.70;;;;;;;5.30;100.00;101823.72;7395486;19;20890;-46
2021/11/24 02:31:29;;;;;;;45.10;19.90;;;;;;;5.37;100.00;101825.09;7399815;19;20380;-50
2021/11/24 02:33:59;;;;;;;33.60;17.47;;;;;;;5.33;100.00;101826.50;7398114;19;20868;-50
2021/11/24 02:36:32;;;;;;;38.00;18.13;;;;;;;5.32;100.00;101826.41;7398792;19;20916;-46
2021/11/24 02:39:02;;;;;;;37.60;18.13;;;;;;;5.39;100.00;101818.44;7395980;19;20415;-49
2021/11/24 02:41:32;;;;;;;34.57;17.20;;;;;;;5.35;100.00;101811.28;7400059;19;20455;-51
2021/11/24 02:44:16;;;;;;;34.47;15.73;;;;;;;5.34;100.00;101806.94;7396760;19;20487;-48
2021/11/24 02:46:46;;;;;;;36.60;18.07;;;;;;;5.37;100.00;101802.06;7398041;19;20423;-51
2021/11/24 02:49:16;;;;;;;33.50;17.73;;;;;;;5.44;100.00;101806.00;7396119;19;20419;-53
2021/11/24 02:51:48;;;;;;;42.20;19.10;;;;;;;5.40;100.00;101800.63;7399258;19;20371;-48
2021/11/24 02:54:18;;;;;;;30.10;16.80;;;;;;;5.41;100.00;101811.78;7396370;19;20423;-48
2021/11/24 02:56:47;;;;;;;36.57;18.57;;;;;;;5.39;100.00;101809.09;7397758;19;20424;-51
2021/11/24 02:59:17;;;;;;;41.73;19.37;;;;;;;5.42;100.00;101808.44;7396147;19;20875;-52
2021/11/24 03:01:46;;;;;;;38.93;18.80;;;;;;;5.41;100.00;101806.66;7398925;19;20440;-49
2021/11/24 03:04:16;;;;;;;43.27;20.07;;;;;;;5.48;100.00;101808.94;7395937;19;20428;-53
2021/11/24 03:06:48;;;;;;;36.90;17.53;;;;;;;5.49;100.00;101814.97;7397333;19;20427;-50
2021/11/24 03:09:17;;;;;;;41.67;18.37;;;;;;;5.48;100.00;101803.81;7395579;19;20423;-51
2021/11/24 03:11:47;;;;;;;39.87;18.20;;;;;;;5.44;100.00;101806.88;7400149;19;20416;-51
2021/11/24 03:14:16;;;;;;;37.27;17.97;;;;;;;5.50;100.00;101802.25;7394670;19;20718;-51
2021/11/24 03:16:46;;;;;;;42.63;18.47;;;;;;;5.50;100.00;101793.69;7397279;19;20406;-53
2021/11/24 03:19:15;;;;;;;36.97;16.63;;;;;;;5.50;100.00;101801.38;7395773;19;20499;-52
2021/11/24 03:21:47;;;;;;;38.73;17.93;;;;;;;5.56;100.00;101790.72;7399047;19;20468;-53
2021/11/24 03:24:17;;;;;;;39.77;16.97;;;;;;;5.52;100.00;101784.47;7396094;19;20982;-54
2021/11/24 03:26:46;;;;;;;40.07;19.07;;;;;;;5.53;100.00;101782.03;7397029;19;20425;-47
2021/11/24 03:29:16;;;;;;;42.03;18.33;;;;;;;5.54;100.00;101783.81;7395308;19;20772;-45
2021/11/24 03:31:45;;;;;;;33.13;17.00;;;;;;;5.53;100.00;101783.69;7398454;19;20403;-47
2021/11/24 03:34:15;;;;;;;37.90;15.97;;;;;;;5.51;100.00;101783.59;7395499;19;20431;-46
2021/11/24 03:36:47;;;;;;;36.73;17.40;;;;;;;5.57;100.00;101787.38;7396748;19;20476;-46
2021/11/24 03:39:16;;;;;;;35.77;18.73;;;;;;;5.58;100.00;101781.50;7395066;19;20411;-51
2021/11/24 03:41:46;;;;;;;31.77;14.50;;;;;;;5.56;100.00;101781.38;7398830;19;20412;-49
2021/11/24 03:44:15;;;;;;;37.50;16.20;;;;;;;5.54;100.00;101778.69;7395109;19;20891;-46
2021/11/24 03:46:45;;;;;;;27.43;11.17;;;;;;;5.54;100.00;101772.69;7397909;19;20437;-47
2021/11/24 03:49:15;;;;;;;27.27;11.67;;;;;;;5.54;100.00;101762.47;7396786;19;20419;-45
2021/11/24 03:51:49;;;;;;;18.57;9.70;;;;;;;5.52;100.00;101771.66;7399332;19;20399;-47
2021/11/24 03:54:18;;;;;;;18.80;10.97;;;;;;;5.54;100.00;101765.00;7394857;19;20475;-46
2021/11/24 03:56:48;;;;;;;27.23;11.60;;;;;;;5.60;100.00;101770.63;7396159;19;20476;-48
2021/11/24 03:59:17;;;;;;;27.43;11.70;;;;;;;5.53;100.00;101764.09;7394581;19;20427;-47
2021/11/24 04:01:47;;;;;;;22.00;10.83;;;;;;;5.52;100.00;101762.31;7397895;19;20459;-48
2021/11/24 04:04:16;;;;;;;25.20;12.20;;;;;;;5.59;100.00;101768.81;7394602;19;20415;-49
2021/11/24 04:06:48;;;;;;;25.17;12.03;;;;;;;5.62;100.00;101763.94;7395571;19;20912;-51
2021/11/24 04:09:18;;;;;;;24.43;11.53;;;;;;;5.64;100.00;101764.94;7394194;19;20924;-51
2021/11/24 04:11:47;;;;;;;19.80;10.07;;;;;;;5.63;100.00;101763.16;7397704;19;20388;-48
2021/11/24 04:14:17;;;;;;;24.97;11.20;;;;;;;5.69;100.00;101765.28;7398177;19;20465;-47
2021/11/24 04:16:47;;;;;;;21.90;9.67;;;;;;;5.64;100.00;101764.06;7402914;19;20416;-47
2021/11/24 04:19:16;;;;;;;24.60;11.27;;;;;;;5.62;100.00;101757.91;7399807;19;20427;-48
2021/11/24 04:21:48;;;;;;;22.17;11.10;;;;;;;5.66;100.00;101758.25;7404623;19;20410;-48
2021/11/24 04:24:18;;;;;;;22.20;10.17;;;;;;;5.70;100.00;101759.41;7401651;19;20528;-45
2021/11/24 04:26:48;;;;;;;22.77;11.30;;;;;;;5.73;100.00;101757.09;7406958;19;20706;-48
2021/11/24 04:29:17;;;;;;;21.50;10.70;;;;;;;5.78;100.00;101752.31;7401226;19;20479;-50
2021/11/24 04:31:46;;;;;;;22.77;11.20;;;;;;;5.78;100.00;101753.22;7404226;19;20387;-50
2021/11/24 04:34:16;;;;;;;28.07;11.40;;;;;;;5.77;100.00;101748.88;7399422;19;21344;-46
2021/11/24 04:36:48;;;;;;;23.20;11.63;;;;;;;5.79;100.00;101739.63;7402233;19;20475;-50
2021/11/24 04:39:18;;;;;;;24.90;11.17;;;;;;;5.79;100.00;101751.53;7400988;19;20770;-45
2021/11/24 04:41:47;;;;;;;23.50;11.50;;;;;;;5.77;100.00;101746.31;7404082;19;20720;-46
2021/11/24 04:44:17;;;;;;;21.30;10.80;;;;;;;5.85;100.00;101751.13;7400423;19;20497;-46
2021/11/24 04:46:46;;;;;;;23.03;11.07;;;;;;;5.86;100.00;101748.69;7401914;19;20427;-51
2021/11/24 04:49:16;;;;;;;24.97;11.37;;;;;;;5.84;100.00;101751.91;7399476;19;20496;-47
2021/11/24 04:51:48;;;;;;;27.00;10.60;;;;;;;5.84;100.00;101741.66;7403804;19;20467;-46
2021/11/24 04:54:18;;;;;;;23.10;11.63;;;;;;;5.81;100.00;101738.06;7398859;19;20427;-49
2021/11/24 04:56:47;;;;;;;23.43;11.57;;;;;;;5.85;100.00;101735.75;7401545;19;20427;-50
2021/11/24 04:59:17;;;;;;;28.00;14.17;;;;;;;5.83;100.00;101733.06;7399003;19;20431;-48
2021/11/24 05:01:47;;;;;;;25.03;12.40;;;;;;;5.81;100.00;101732.94;7403501;19;20471;-52
2021/11/24 05:04:16;;;;;;;28.93;14.17;;;;;;;5.84;100.00;101727.16;7400215;19;20422;-51
2021/11/24 05:06:48;;;;;;;26.27;12.20;;;;;;;5.78;100.00;101730.16;7401268;19;20758;-46
2021/11/24 05:09:18;;;;;;;34.63;14.27;;;;;;;5.80;100.00;101732.84;7399718;19;20421;-50
2021/11/24 05:11:47;;;;;;;29.70;14.07;;;;;;;5.83;100.00;101729.63;7403122;19;20714;-46
2021/11/24 05:14:21;;;;;;;27.17;13.30;;;;;;;5.83;100.00;101721.94;7399323;19;20419;-49
2021/11/24 05:16:51;;;;;;;26.07;12.87;;;;;;;5.85;100.00;101722.94;7402874;19;20487;-45
2021/11/24 05:19:23;;;;;;;28.13;13.23;;;;;;;5.81;100.00;101722.69;7398019;19;20420;-45
2021/11/24 05:21:55;;;;;;;27.07;13.27;;;;;;;5.85;100.00;101725.50;7403837;19;20392;-49
2021/11/24 05:24:25;;;;;;;20.53;9.23;;;;;;;5.79;100.00;101716.56;7396363;19;20486;-45
2021/11/24 05:26:54;;;;;;;23.47;11.80;;;;;;;5.79;100.00;101716.56;7400611;19;20482;-48
2021/11/24 05:29:24;;;;;;;24.57;12.13;;;;;;;5.83;100.00;101719.41;7399081;19;20415;-52
2021/11/24 05:31:54;;;;;;;21.57;10.43;;;;;;;5.77;100.00;101723.25;7402514;19;20384;-51
2021/11/24 05:34:23;;;;;;;23.67;11.10;;;;;;;5.84;100.00;101723.72;7396739;19;20490;-46
2021/11/24 05:36:55;;;;;;;24.53;11.70;;;;;;;5.81;100.00;101725.25;7400170;19;20495;-48
2021/11/24 05:39:25;;;;;;;24.30;13.27;;;;;;;5.84;100.00;101731.41;7398963;19;20467;-50
2021/11/24 05:41:54;;;;;;;25.93;11.17;;;;;;;5.87;100.00;101719.72;7402237;19;20388;-47
2021/11/24 05:44:25;;;;;;;21.17;11.33;;;;;;;5.87;100.00;101726.50;7397792;19;20421;-48
2021/11/24 05:46:58;;;;;;;21.60;11.17;;;;;;;5.79;100.00;101725.91;7400113;19;20903;-45
2021/11/24 05:49:28;;;;;;;23.67;11.60;;;;;;;5.77;100.00;101722.34;7399916;19;20453;-48
2021/11/24 05:52:01;;;;;;;30.03;11.50;;;;;;;5.73;100.00;101721.22;7401624;19;20435;-53
2021/11/24 05:54:30;;;;;;;22.87;10.97;;;;;;;5.72;100.00;101716.88;7401365;19;20519;-47
2021/11/24 05:57:00;;;;;;;24.90;13.40;;;;;;;5.76;100.00;101716.34;7399405;19;20487;-53
2021/11/24 05:59:30;;;;;;;24.20;13.27;;;;;;;5.78;100.00;101701.09;7397589;19;20412;-53
2021/11/24 06:01:59;;;;;;;23.93;11.47;;;;;;;5.73;100.00;101707.53;7401546;19;20648;-45
2021/11/24 06:04:28;;;;;;;24.63;11.33;;;;;;;5.67;100.00;101708.84;7398098;19;20424;-45
2021/11/24 06:07:01;;;;;;;24.50;11.73;;;;;;;5.66;100.00;101703.63;7398937;19;20422;-48
2021/11/24 06:09:31;;;;;;;24.27;12.27;;;;;;;5.64;100.00;101712.84;7397225;19;20424;-53
2021/11/24 06:12:00;;;;;;;31.20;13.07;;;;;;;5.69;100.00;101706.38;7400956;19;20394;-52
2021/11/24 06:14:30;;;;;;;28.63;11.87;;;;;;;5.72;100.00;101706.66;7396471;19;20906;-47
2021/11/24 06:17:00;;;;;;;28.50;15.23;;;;;;;5.68;100.00;101704.63;7399026;19;20420;-50
2021/11/24 06:19:29;;;;;;;31.87;13.53;;;;;;;5.68;100.00;101699.50;7397573;19;20415;-50
2021/11/24 06:22:01;;;;;;;27.53;13.77;;;;;;;5.64;100.00;101697.50;7402433;19;20715;-52
2021/11/24 06:24:31;;;;;;;27.67;14.87;;;;;;;5.67;100.00;101706.28;7397401;19;20880;-52
2021/11/24 06:27:00;;;;;;;29.70;15.43;;;;;;;5.64;100.00;101707.72;7398104;19;20423;-53
2021/11/24 06:29:30;;;;;;;32.90;15.00;;;;;;;5.69;100.00;101708.94;7397246;19;20483;-51
2021/11/24 06:31:59;;;;;;;32.63;16.17;;;;;;;5.69;100.00;101711.50;7400355;19;20384;-53
2021/11/24 06:34:28;;;;;;;32.07;15.47;;;;;;;5.76;100.00;101706.13;7395541;19;20431;-52
2021/11/24 06:37:01;;;;;;;30.87;14.60;;;;;;;5.73;100.00;101703.31;7396975;19;20416;-52
2021/11/24 06:39:30;;;;;;;28.83;14.13;;;;;;;5.71;100.00;101701.41;7395787;19;20414;-54
2021/11/24 06:42:00;;;;;;;33.93;16.37;;;;;;;5.74;100.00;101702.53;7400035;19;20400;-53
2021/11/24 06:44:29;;;;;;;26.53;14.27;;;;;;;5.67;100.00;101698.63;7396628;19;20420;-51
2021/11/24 06:46:59;;;;;;;27.07;13.93;;;;;;;5.74;100.00;101699.09;7397794;19;20874;-46
2021/11/24 06:49:30;;;;;;;31.27;15.07;;;;;;;5.77;100.00;101705.34;7396368;19;20502;-52
2021/11/24 06:52:02;;;;;;;30.93;14.30;;;;;;;5.75;100.00;101694.06;7399459;19;21010;-50
2021/11/24 06:54:32;;;;;;;24.53;12.60;;;;;;;5.67;100.00;101703.75;7394387;19;20446;-47
2021/11/24 06:57:02;;;;;;;27.70;13.13;;;;;;;5.67;100.00;101693.50;7397031;19;20484;-47
2021/11/24 06:59:31;;;;;;;23.70;13.20;;;;;;;5.68;100.00;101696.94;7395769;19;20542;-44
2021/11/24 07:02:01;;;;;;;25.50;12.90;;;;;;;5.66;100.00;101695.94;7399107;19;20399;-49
2021/11/24 07:04:31;;;;;;;21.70;11.90;;;;;;;5.70;100.00;101691.94;7395669;19;20396;-47
2021/11/24 07:07:03;;;;;;;23.57;12.30;;;;;;;5.70;100.00;101686.81;7397055;19;20472;-47
2021/11/24 07:09:33;;;;;;;30.67;16.27;;;;;;;5.80;100.00;101690.19;7395412;19;20444;-44
2021/11/24 07:12:02;;;;;;;27.10;13.40;;;;;;;6.30;100.00;101683.66;7399744;19;20404;-48
2021/11/24 07:14:32;;;;;;;35.87;19.00;;;;;;;6.81;100.00;101673.63;7395045;19;20514;-46
2021/11/24 07:17:01;;;;;;;21.70;12.60;;;;;;;6.23;100.00;101663.47;7397108;19;20419;-45
2021/11/24 07:19:31;;;;;;;24.23;13.70;;;;;;;6.51;100.00;101665.50;7394952;19;20873;-46
2021/11/24 07:22:03;;;;;;;21.10;13.17;;;;;;;6.59;100.00;101666.97;7399205;19;20409;-50
2021/11/24 07:24:33;;;;;;;24.27;12.77;;;;;;;6.63;100.00;101668.06;7395158;19;20425;-46
2021/11/24 07:27:03;;;;;;;53.30;30.70;;;;;;;6.60;100.00;101663.63;7396508;19;20425;-49
2021/11/24 07:29:32;;;;;;;23.27;13.70;;;;;;;6.50;100.00;101666.28;7395317;19;20429;-44
2021/11/24 07:32:02;;;;;;;23.10;13.17;;;;;;;6.24;100.00;101672.94;7398646;19;20392;-45
2021/11/24 07:34:32;;;;;;;25.07;11.80;;;;;;;6.01;100.00;101684.88;7395540;19;20447;-47
2021/11/24 07:37:05;;;;;;;23.23;12.57;;;;;;;5.86;100.00;101686.31;7396727;19;20431;-48
2021/11/24 07:39:34;;;;;;;21.70;13.10;;;;;;;5.77;100.00;101682.28;7395299;19;20478;-45
2021/11/24 07:42:04;;;;;;;22.00;12.93;;;;;;;5.74;100.00;101684.59;7400315;19;20410;-49
2021/11/24 07:44:34;;;;;;;26.83;13.33;;;;;;;5.69;100.00;101685.91;7394901;19;20931;-47
2021/11/24 07:47:04;;;;;;;28.33;12.23;;;;;;;5.63;100.00;101683.78;7396137;19;20416;-45
2021/11/24 07:49:34;;;;;;;24.27;12.07;;;;;;;5.62;100.00;101675.97;7400633;19;20427;-50
2021/11/24 07:52:07;;;;;;;20.70;11.47;;;;;;;5.61;100.00;101681.88;7405082;19;20395;-47
2021/11/24 07:54:37;;;;;;;25.77;13.13;;;;;;;5.66;100.00;101671.19;7401524;19;20437;-51
2021/11/24 07:57:07;;;;;;;22.43;12.17;;;;;;;5.63;100.00;101665.84;7402970;19;20421;-48
2021/11/24 07:59:37;;;;;;;23.50;12.93;;;;;;;5.66;100.00;101662.66;7402849;19;20452;-46
2021/11/24 08:02:07;;;;;;;24.00;12.70;;;;;;;5.63;100.00;101664.94;7405412;19;20403;-48
2021/11/24 08:04:37;;;;;;;23.90;14.23;;;;;;;5.74;100.00;101655.56;7403025;19;20545;-44
2021/11/24 08:07:09;;;;;;;28.83;14.90;;;;;;;5.72;100.00;101660.56;7402255;19;20430;-49
2021/11/24 08:09:39;;;;;;;27.60;15.43;;;;;;;5.73;100.00;101662.34;7401524;19;20415;-50
2021/11/24 08:12:28;;;;;;;30.40;15.60;;;;;;;5.71;100.00;101670.66;7404779;19;20391;-49
2021/11/24 08:14:58;;;;;;;24.67;14.10;;;;;;;5.69;100.00;101670.53;7400700;19;20944;-46
2021/11/24 08:17:28;;;;;;;25.03;12.60;;;;;;;5.63;100.00;101670.06;7401882;19;20489;-50
2021/11/24 08:19:57;;;;;;;20.60;10.77;;;;;;;5.56;100.00;101672.94;7401263;19;20430;-47
2021/11/24 08:22:30;;;;;;;27.80;15.33;;;;;;;5.61;100.00;101666.50;7404872;19;20423;-48
2021/11/24 08:24:59;;;;;;;27.43;13.10;;;;;;;5.60;100.00;101669.84;7402767;19;20451;-47
2021/11/24 08:27:29;;;;;;;23.60;13.90;;;;;;;5.64;100.00;101666.75;7401649;19;20479;-49
2021/11/24 08:29:58;;;;;;;27.67;14.57;;;;;;;5.68;100.00;101661.09;7404048;19;20916;-46
2021/11/24 08:32:28;;;;;;;27.90;14.20;;;;;;;5.66;100.00;101654.97;7403997;19;20392;-46
2021/11/24 08:34:59;;;;;;;25.13;13.43;;;;;;;5.60;100.00;101667.28;7400118;19;20441;-50
2021/11/24 08:37:31;;;;;;;23.97;12.07;;;;;;;5.56;100.00;101655.03;7401417;19;20426;-47
2021/11/24 08:40:01;;;;;;;26.43;13.77;;;;;;;5.62;100.00;101658.06;7399291;19;20499;-48
2021/11/24 08:42:30;;;;;;;23.90;13.20;;;;;;;5.56;100.00;101655.03;7404010;19;20706;-45
2021/11/24 08:44:59;;;;;;;30.70;14.37;;;;;;;5.60;100.00;101654.50;7399965;19;20435;-52
2021/11/24 08:47:29;;;;;;;28.80;14.00;;;;;;;5.63;100.00;101647.94;7401196;19;20408;-53
2021/11/24 08:50:00;;;;;;;28.90;14.67;;;;;;;5.68;100.00;101655.97;7400196;19;20429;-49
2021/11/24 08:52:32;;;;;;;23.97;12.10;;;;;;;5.63;100.00;101657.28;7403656;19;20680;-47
2021/11/24 08:55:01;;;;;;;33.37;13.57;;;;;;;5.70;100.00;101654.44;7399863;19;20494;-46
2021/11/24 08:57:31;;;;;;;30.13;13.87;;;;;;;5.67;100.00;101656.75;7400614;19;20479;-45
2021/11/24 09:00:00;;;;;;;25.50;12.60;;;;;;;5.72;100.00;101660.56;7398994;19;20403;-49
2021/11/24 09:02:30;;;;;;;28.37;13.73;;;;;;;5.73;100.00;101657.22;7406384;19;20400;-48
2021/11/24 09:05:00;;;;;;;24.07;12.87;;;;;;;5.71;100.00;101658.78;7402908;19;20444;-49
2021/11/24 09:07:32;;;;;;;23.90;13.27;;;;;;;5.71;100.00;101653.66;7400244;19;20759;-44
2021/11/24 09:10:02;;;;;;;26.07;11.90;;;;;;;5.65;100.00;101655.75;7399398;19;20712;-45
2021/11/24 09:12:32;;;;;;;25.90;11.77;;;;;;;5.67;100.00;101661.88;7402822;19;20710;-47
2021/11/24 09:15:02;;;;;;;28.20;14.47;;;;;;;5.72;100.00;101652.88;7398150;19;20697;-51
2021/11/24 09:17:31;;;;;;;26.73;13.50;;;;;;;5.78;100.00;101648.22;7400364;19;20482;-53
2021/11/24 09:20:01;;;;;;;27.03;11.63;;;;;;;5.76;100.00;101652.34;7400443;19;20451;-53
2021/11/24 09:22:43;;;;;;;22.73;11.53;;;;;;;5.79;100.00;101647.44;7399272;19;20403;-51
2021/11/24 09:25:15;;;;;;;23.60;11.77;;;;;;;5.75;100.00;101650.53;7396952;19;20389;-53
2021/11/24 09:27:55;;;;;;;27.20;13.57;;;;;;;5.85;100.00;101649.53;7395241;19;20893;-50
2021/11/24 09:30:27;;;;;;;23.90;13.10;;;;;;;5.83;100.00;101648.53;7404259;19;20659;-45
2021/11/24 09:32:57;;;;;;;30.00;12.90;;;;;;;5.90;100.00;101639.66;7401709;19;20455;-50
2021/11/24 09:35:26;;;;;;;24.17;12.60;;;;;;;5.91;100.00;101646.56;7399947;19;20401;-52
2021/11/24 09:37:59;;;;;;;24.73;13.80;;;;;;;5.98;100.00;101643.69;7395300;19;21013;-48
2021/11/24 09:40:28;;;;;;;22.70;12.67;;;;;;;5.98;100.00;101633.44;7402198;19;20448;-51
2021/11/24 09:43:02;;;;;;;26.67;13.10;;;;;;;6.01;100.00;101619.97;7395667;19;20428;-53
2021/11/24 09:45:32;;;;;;;28.23;13.03;;;;;;;5.94;100.00;101627.19;7401027;19;20445;-50
2021/11/24 09:48:03;;;;;;;22.97;12.70;;;;;;;5.92;100.00;101622.72;7395489;19;20420;-53
2021/11/24 09:50:35;;;;;;;24.53;11.20;;;;;;;5.89;100.00;101618.28;7403810;19;20472;-48
2021/11/24 09:53:08;;;;;;;23.53;12.83;;;;;;;5.96;100.00;101609.38;7398067;19;20488;-48
2021/11/24 09:55:39;;;;;;;25.00;12.73;;;;;;;5.99;100.00;101607.03;7401959;19;20447;-53
2021/11/24 09:58:09;;;;;;;25.60;11.23;;;;;;;5.91;100.00;101595.34;7399105;19;20760;-51
2021/11/24 10:00:40;;;;;;;22.80;11.47;;;;;;;5.92;100.00;101599.69;7401416;19;20447;-51
2021/11/24 10:03:11;;;;;;;23.90;13.43;;;;;;;6.07;100.00;101598.28;7395342;19;20408;-51
2021/11/24 10:05:41;;;;;;;26.17;14.37;;;;;;;6.03;100.00;101595.38;7398363;19;20385;-50
2021/11/24 10:08:13;;;;;;;26.30;13.00;;;;;;;6.07;100.00;101588.03;7397289;19;20887;-44
2021/11/24 10:10:42;;;;;;;25.40;12.03;;;;;;;6.05;100.00;101587.03;7397232;19;20402;-45
2021/11/24 10:13:13;;;;;;;26.43;13.17;;;;;;;6.07;100.00;101577.78;7397274;19;20484;-45
2021/11/24 10:15:45;;;;;;;24.80;12.67;;;;;;;6.09;100.00;101580.47;7399528;19;20404;-44
2021/11/24 10:18:17;;;;;;;20.20;10.90;;;;;;;6.00;100.00;101582.31;7394480;19;20436;-44
2021/11/24 10:20:49;;;;;;;22.07;11.20;;;;;;;6.02;100.00;101567.94;7400889;19;20380;-44
2021/11/24 10:23:34;;;;;;;23.27;10.80;;;;;;;6.04;100.00;101584.34;7397142;19;20413;-44
2021/11/24 10:26:20;;;;;;;21.63;13.00;;;;;;;6.11;100.00;101575.44;7398423;19;20425;-44
2021/11/24 10:28:56;;;;;;;24.77;11.87;;;;;;;6.10;100.00;101579.66;7397199;19;20690;-45
2021/11/24 10:31:37;;;;;;;20.97;10.23;;;;;;;6.13;100.00;101579.00;7400805;19;20660;-48
2021/11/24 10:34:15;;;;;;;23.40;9.77;;;;;;;6.11;100.00;101568.66;7398229;19;20471;-45
2021/11/24 10:37:00;;;;;;;21.70;10.83;;;;;;;6.14;100.00;101562.84;7397584;19;20452;-44
2021/11/24 10:39:35;;;;;;;21.20;10.63;;;;;;;6.20;100.00;101563.28;7397630;19;20730;-44
2021/11/24 10:42:10;;;;;;;19.90;10.83;;;;;;;6.21;100.00;101549.72;7395559;19;20484;-47
2021/11/24 10:44:41;;;;;;;20.50;11.00;;;;;;;6.20;100.00;101553.03;7396305;19;20457;-46
2021/11/24 10:47:13;;;;;;;25.70;13.03;;;;;;;6.39;100.00;101549.25;7391810;19;20500;-45
2021/11/24 10:49:45;;;;;;;20.50;11.10;;;;;;;6.44;100.00;101545.34;7398887;19;20457;-45
2021/11/24 10:52:20;;;;;;;22.43;12.13;;;;;;;6.50;100.00;101542.34;7394994;19;20690;-49
2021/11/24 10:55:13;;;;;;;20.70;11.37;;;;;;;6.59;100.00;101533.63;7397829;19;20655;-46
2021/11/24 10:57:44;;;;;;;17.63;9.53;;;;;;;6.54;100.00;101532.41;7393449;19;20507;-48
2021/11/24 11:00:17;;;;;;;20.80;10.53;;;;;;;6.59;100.00;101536.19;7398432;19;20652;-48
2021/11/24 11:02:47;;;;;;;15.87;9.47;;;;;;;6.56;100.00;101532.50;7394082;19;20472;-46
2021/11/24 11:05:22;;;;;;;19.10;10.17;;;;;;;6.56;100.00;101519.69;7403204;19;20397;-48
2021/11/24 11:08:02;;;;;;;15.70;8.27;;;;;;;6.56;100.00;101520.56;7393526;19;20408;-49
2021/11/24 11:10:36;;;;;;;13.53;6.60;;;;;;;6.88;100.00;101519.34;7397947;19;20392;-46
2021/11/24 11:13:07;;;;;;;14.20;7.77;;;;;;;6.93;100.00;101521.34;7394136;19;20449;-48
2021/11/24 11:15:39;;;;;;;15.47;8.90;;;;;;;7.00;100.00;101521.00;7397388;19;20399;-48
2021/11/24 11:18:13;;;;;;;15.73;8.20;;;;;;;7.08;100.00;101513.81;7394872;19;20433;-47
2021/11/24 11:20:46;;;;;;;14.63;7.07;;;;;;;6.87;100.00;101512.44;7397869;19;20385;-46
2021/11/24 11:23:26;;;;;;;14.90;6.53;;;;;;;6.93;100.00;101503.41;7399716;19;20423;-44
2021/11/24 11:25:59;;;;;;;12.40;6.80;;;;;;;6.73;100.00;101501.22;7405137;19;20401;-49